createdAt,value
2023-04-03T00:00:11.714Z,9.00
2023-04-03T00:00:43.585Z,8.80
2023-04-03T00:01:16.576Z,8.98
2023-04-03T00:01:48.413Z,8.93
2023-04-03T00:02:20.703Z,7.30
2023-04-03T00:02:53.784Z,8.10
2023-04-03T00:03:26.031Z,7.72
2023-04-03T00:03:57.910Z,9.65
2023-04-03T00:04:31.086Z,7.50
2023-04-03T00:05:03.030Z,7.90
2023-04-03T00:05:35.227Z,7.30
2023-04-03T00:06:09.694Z,8.65
2023-04-03T00:06:41.496Z,7.47
2023-04-03T00:07:13.427Z,8.20
2023-04-03T00:07:46.212Z,7.50
2023-04-03T00:08:18.135Z,7.32
2023-04-03T00:08:50.330Z,6.75
2023-04-03T00:09:23.107Z,7.10
2023-04-03T00:09:54.902Z,8.60
2023-04-03T00:10:27.204Z,8.60
2023-04-03T00:11:00.230Z,8.43
2023-04-03T00:11:32.094Z,7.90
2023-04-03T00:12:04.137Z,7.38
2023-04-03T00:12:36.967Z,7.50
2023-04-03T00:13:10.169Z,7.22
2023-04-03T00:13:42.030Z,7.57
2023-04-03T00:14:14.756Z,7.25
2023-04-03T00:14:46.557Z,8.70
2023-04-03T00:15:18.495Z,8.95
2023-04-03T00:15:51.485Z,7.70
2023-04-03T00:16:23.297Z,7.63
2023-04-03T00:16:55.193Z,7.50
2023-04-03T00:17:28.020Z,7.35
2023-04-03T00:17:59.904Z,6.85
2023-04-03T00:18:32.892Z,8.02
2023-04-03T00:19:04.696Z,7.10
2023-04-03T00:19:36.631Z,7.80
2023-04-03T00:20:10.382Z,7.68
2023-04-03T00:20:42.278Z,7.70
2023-04-03T00:21:16.408Z,7.45
2023-04-03T00:21:49.209Z,8.02
2023-04-03T00:22:21.072Z,7.13
2023-04-03T00:22:52.913Z,7.30
2023-04-03T00:23:25.769Z,8.27
2023-04-03T00:23:57.557Z,7.82
2023-04-03T00:24:29.370Z,7.47
2023-04-03T00:25:02.152Z,7.45
2023-04-03T00:25:34.304Z,8.10
2023-04-03T00:26:07.093Z,7.88
2023-04-03T00:26:38.923Z,7.65
2023-04-03T00:27:12.024Z,7.53
2023-04-03T00:27:44.807Z,6.78
2023-04-03T00:28:16.807Z,7.53
2023-04-03T00:28:48.609Z,8.15
2023-04-03T00:29:21.420Z,7.43
2023-04-03T00:29:53.263Z,7.57
2023-04-03T00:30:25.487Z,7.63
2023-04-03T00:30:58.425Z,8.30
2023-04-03T00:31:30.457Z,8.38
2023-04-03T00:32:02.345Z,6.95
2023-04-03T00:32:35.248Z,7.47
2023-04-03T00:33:07.146Z,7.10
2023-04-03T00:33:39.098Z,6.35
2023-04-03T00:34:11.971Z,7.82
2023-04-03T00:34:43.770Z,7.30
2023-04-03T00:35:16.821Z,6.65
2023-04-03T00:35:49.110Z,8.63
2023-04-03T00:36:23.309Z,7.93
2023-04-03T00:36:55.356Z,7.25
2023-04-03T00:37:27.243Z,7.60
2023-04-03T00:38:00.014Z,7.43
2023-04-03T00:38:32.465Z,7.40
2023-04-03T00:39:04.397Z,7.28
2023-04-03T00:39:37.223Z,7.78
2023-04-03T00:40:10.683Z,8.18
2023-04-03T00:40:44.596Z,7.50
2023-04-03T00:41:17.371Z,7.95
2023-04-03T00:41:49.165Z,7.10
2023-04-03T00:42:21.102Z,7.63
2023-04-03T00:42:57.597Z,6.90
2023-04-03T00:43:29.739Z,8.10
2023-04-03T00:44:02.487Z,8.63
2023-04-03T00:45:22.623Z,7.30
2023-04-03T00:45:56.480Z,7.00
2023-04-03T00:46:28.327Z,7.30
2023-04-03T00:47:00.417Z,6.20
2023-04-03T00:47:32.747Z,7.28
2023-04-03T00:48:08.303Z,7.88
2023-04-03T00:48:43.005Z,6.40
2023-04-03T00:49:14.877Z,7.63
2023-04-03T00:49:47.931Z,7.45
2023-04-03T00:50:20.292Z,6.88
2023-04-03T00:50:54.286Z,8.20
2023-04-03T00:51:28.062Z,7.30
2023-04-03T00:52:00.556Z,6.80
2023-04-03T00:52:32.819Z,6.72
2023-04-03T00:53:07.062Z,6.63
2023-04-03T00:53:44.084Z,7.03
2023-04-03T00:54:16.382Z,8.30
2023-04-03T00:54:52.106Z,6.75
2023-04-03T00:55:24.111Z,8.20
2023-04-03T00:55:57.386Z,7.10
2023-04-03T00:56:33.152Z,7.45
2023-04-03T00:57:06.936Z,6.82
2023-04-03T00:57:39.279Z,6.47
2023-04-03T00:58:13.987Z,6.75
2023-04-03T00:58:50.319Z,8.38
2023-04-03T00:59:27.817Z,7.10
2023-04-03T01:00:05.524Z,7.30
2023-04-03T01:00:39.938Z,6.95
2023-04-03T01:01:17.900Z,6.45
2023-04-03T01:01:50.541Z,7.75
2023-04-03T01:02:22.540Z,7.32
2023-04-03T01:02:55.525Z,7.80
2023-04-03T01:03:27.574Z,7.68
2023-04-03T01:04:00.702Z,8.80
2023-04-03T01:04:35.489Z,6.82
2023-04-03T01:05:08.359Z,7.43
2023-04-03T01:05:41.360Z,8.98
2023-04-03T01:06:17.733Z,9.77
2023-04-03T01:06:51.446Z,7.65
2023-04-03T01:07:27.459Z,6.50
2023-04-03T01:08:00.897Z,6.78
2023-04-03T01:08:32.931Z,6.93
2023-04-03T01:09:06.700Z,7.82
2023-04-03T01:09:39.709Z,7.45
2023-04-03T01:10:15.378Z,6.63
2023-04-03T01:10:48.159Z,6.40
2023-04-03T01:11:21.604Z,7.18
2023-04-03T01:11:53.457Z,6.97
2023-04-03T01:12:28.320Z,7.28
2023-04-03T01:13:01.238Z,7.00
2023-04-03T01:13:35.192Z,7.35
2023-04-03T01:14:07.422Z,6.85
2023-04-03T01:14:39.300Z,8.27
2023-04-03T01:15:14.016Z,7.18
2023-04-03T01:15:46.037Z,6.25
2023-04-03T01:16:17.940Z,7.00
2023-04-03T01:16:54.985Z,7.60
2023-04-03T01:17:32.500Z,6.72
2023-04-03T01:18:05.659Z,7.28
2023-04-03T01:18:40.420Z,7.00
2023-04-03T01:19:18.026Z,6.55
2023-04-03T01:19:59.440Z,7.68
2023-04-03T01:21:01.193Z,6.60
2023-04-03T01:22:05.635Z,6.95
2023-04-03T01:22:44.444Z,6.40
2023-04-03T01:23:31.096Z,6.43
2023-04-03T01:24:29.441Z,7.32
2023-04-03T01:25:01.775Z,6.65
2023-04-03T01:25:35.141Z,6.82
2023-04-03T01:26:08.063Z,6.88
2023-04-03T01:26:40.329Z,6.72
2023-04-03T01:27:13.098Z,6.35
2023-04-03T01:27:46.131Z,7.00
2023-04-03T01:28:21.298Z,6.43
2023-04-03T01:28:54.716Z,6.75
2023-04-03T01:29:26.836Z,6.35
2023-04-03T01:30:00.415Z,7.25
2023-04-03T01:30:36.833Z,7.72
2023-04-03T01:31:17.733Z,6.60
2023-04-03T01:31:53.740Z,7.20
2023-04-03T01:32:25.702Z,6.18
2023-04-03T01:32:58.099Z,6.93
2023-04-03T01:33:31.299Z,6.32
2023-04-03T01:34:03.809Z,7.18
2023-04-03T01:34:35.728Z,6.45
2023-04-03T01:35:10.287Z,6.82
2023-04-03T01:35:42.208Z,6.75
2023-04-03T01:36:16.646Z,6.82
2023-04-03T01:36:49.637Z,6.55
2023-04-03T01:37:21.506Z,7.10
2023-04-03T01:37:53.405Z,6.63
2023-04-03T01:38:26.287Z,6.85
2023-04-03T01:39:00.140Z,7.15
2023-04-03T01:39:32.919Z,6.45
2023-04-03T01:40:06.477Z,7.00
2023-04-03T01:40:38.781Z,7.10
2023-04-03T01:41:10.845Z,6.50
2023-04-03T01:41:43.656Z,7.32
2023-04-03T01:42:16.823Z,6.80
2023-04-03T01:42:48.654Z,6.55
2023-04-03T01:43:21.425Z,7.15
2023-04-03T01:43:53.422Z,6.63
2023-04-03T01:44:26.205Z,6.82
2023-04-03T01:44:58.019Z,6.40
2023-04-03T01:45:29.884Z,7.63
2023-04-03T01:46:02.964Z,6.90
2023-04-03T01:46:35.221Z,6.40
2023-04-03T01:47:08.443Z,6.40
2023-04-03T01:47:41.292Z,6.88
2023-04-03T01:48:13.940Z,6.47
2023-04-03T01:48:46.533Z,7.45
2023-04-03T01:49:19.337Z,7.47
2023-04-03T01:49:51.172Z,6.50
2023-04-03T01:50:23.010Z,6.65
2023-04-03T01:50:56.179Z,6.45
2023-04-03T01:51:28.031Z,7.13
2023-04-03T01:51:59.863Z,7.20
2023-04-03T01:52:32.760Z,7.38
2023-04-03T01:53:04.552Z,7.13
2023-04-03T01:53:36.533Z,6.80
2023-04-03T01:54:09.306Z,6.82
2023-04-03T01:54:41.099Z,6.75
2023-04-03T01:55:12.886Z,6.85
2023-04-03T01:55:46.074Z,6.65
2023-04-03T01:56:17.892Z,7.40
2023-04-03T01:56:49.729Z,6.57
2023-04-03T01:57:22.593Z,7.55
2023-04-03T01:57:54.467Z,7.78
2023-04-03T01:58:26.331Z,6.88
2023-04-03T01:58:59.102Z,6.72
2023-04-03T01:59:31.040Z,7.00
2023-04-03T02:00:03.169Z,6.57
2023-04-03T02:00:37.197Z,6.63
2023-04-03T02:01:09.309Z,6.75
2023-04-03T02:01:41.729Z,7.13
2023-04-03T02:02:16.120Z,6.93
2023-04-03T02:02:47.945Z,6.07
2023-04-03T02:03:19.847Z,6.45
2023-04-03T02:03:52.640Z,6.75
2023-04-03T02:04:24.600Z,6.25
2023-04-03T02:04:56.442Z,6.35
2023-04-03T02:05:29.384Z,6.55
2023-04-03T02:06:01.844Z,6.60
2023-04-03T02:06:33.645Z,6.65
2023-04-03T02:07:06.490Z,6.85
2023-04-03T02:07:38.324Z,5.38
2023-04-03T02:08:10.209Z,6.25
2023-04-03T02:08:43.351Z,6.85
2023-04-03T02:09:15.182Z,7.70
2023-04-03T02:09:47.930Z,6.40
2023-04-03T02:10:19.895Z,6.85
2023-04-03T02:10:52.167Z,6.65
2023-04-03T02:11:24.967Z,6.45
2023-04-03T02:11:56.906Z,6.20
2023-04-03T02:12:28.796Z,6.65
2023-04-03T02:13:01.616Z,7.32
2023-04-03T02:13:33.378Z,6.82
2023-04-03T02:14:05.354Z,6.65
2023-04-03T02:14:38.218Z,6.53
2023-04-03T02:15:10.872Z,6.53
2023-04-03T02:15:42.872Z,6.38
2023-04-03T02:16:15.736Z,7.20
2023-04-03T02:16:47.702Z,7.30
2023-04-03T02:17:20.966Z,6.78
2023-04-03T02:17:54.045Z,5.82
2023-04-03T02:18:26.094Z,6.80
2023-04-03T02:18:57.950Z,6.22
2023-04-03T02:19:30.751Z,5.82
2023-04-03T02:20:04.016Z,6.80
2023-04-03T02:20:36.364Z,6.15
2023-04-03T02:21:09.345Z,6.45
2023-04-03T02:21:41.198Z,5.90
2023-04-03T02:22:13.010Z,6.53
2023-04-03T02:22:45.899Z,7.28
2023-04-03T02:23:17.695Z,5.88
2023-04-03T02:23:49.558Z,6.60
2023-04-03T02:24:22.436Z,6.38
2023-04-03T02:24:54.236Z,6.28
2023-04-03T02:25:26.289Z,5.63
2023-04-03T02:26:09.400Z,6.25
2023-04-03T02:26:41.276Z,7.20
2023-04-03T02:27:13.317Z,5.88
2023-04-03T02:27:46.061Z,6.40
2023-04-03T02:28:17.886Z,6.50
2023-04-03T02:28:49.687Z,6.20
2023-04-03T02:29:21.695Z,7.97
2023-04-03T02:29:54.523Z,7.68
2023-04-03T02:30:27.161Z,6.15
2023-04-03T02:30:58.960Z,6.05
2023-04-03T02:31:31.910Z,5.82
2023-04-03T02:32:04.067Z,5.40
2023-04-03T02:32:37.221Z,5.90
2023-04-03T02:33:10.040Z,6.18
2023-04-03T02:33:41.994Z,6.55
2023-04-03T02:34:14.040Z,5.95
2023-04-03T02:34:46.813Z,6.20
2023-04-03T02:35:19.055Z,5.88
2023-04-03T02:35:54.207Z,6.38
2023-04-03T02:36:27.029Z,5.65
2023-04-03T02:36:58.858Z,5.38
2023-04-03T02:37:31.037Z,5.82
2023-04-03T02:38:03.816Z,6.40
2023-04-03T02:38:36.158Z,5.75
2023-04-03T02:39:08.192Z,5.97
2023-04-03T02:39:41.226Z,5.60
2023-04-03T02:40:13.122Z,5.95
2023-04-03T02:40:44.950Z,5.90
2023-04-03T02:41:17.899Z,6.88
2023-04-03T02:41:49.728Z,5.60
2023-04-03T02:42:21.534Z,5.47
2023-04-03T02:42:54.353Z,5.50
2023-04-03T02:43:26.159Z,6.35
2023-04-03T02:43:57.986Z,5.50
2023-04-03T02:44:30.834Z,5.20
2023-04-03T02:45:02.660Z,5.97
2023-04-03T02:45:34.503Z,5.70
2023-04-03T02:46:08.371Z,5.30
2023-04-03T02:46:40.380Z,5.28
2023-04-03T02:47:12.181Z,6.18
2023-04-03T02:47:46.330Z,5.15
2023-04-03T02:48:18.220Z,5.38
2023-04-03T02:48:50.013Z,5.20
2023-04-03T02:49:22.854Z,5.65
2023-04-03T02:49:54.659Z,5.40
2023-04-03T02:50:26.505Z,5.53
2023-04-03T02:50:59.538Z,5.00
2023-04-03T02:51:31.543Z,5.00
2023-04-03T02:52:03.385Z,5.65
2023-04-03T02:52:36.681Z,5.28
2023-04-03T02:53:08.500Z,5.55
2023-04-03T02:53:40.427Z,5.00
2023-04-03T02:54:13.376Z,4.80
2023-04-03T02:54:45.352Z,4.90
2023-04-03T02:55:17.451Z,5.25
2023-04-03T02:55:50.264Z,4.38
2023-04-03T02:56:22.172Z,5.00
2023-04-03T02:56:54.225Z,5.35
2023-04-03T02:57:27.105Z,4.97
2023-04-03T02:57:58.994Z,4.70
2023-04-03T02:58:30.943Z,4.70
2023-04-03T02:59:03.925Z,4.72
2023-04-03T02:59:35.738Z,4.40
2023-04-03T03:00:09.824Z,4.65
2023-04-03T03:00:42.903Z,5.15
2023-04-03T03:01:15.170Z,4.75
2023-04-03T03:01:47.285Z,4.88
2023-04-03T03:02:20.518Z,5.55
2023-04-03T03:02:53.793Z,4.97
2023-04-03T03:03:25.671Z,5.25
2023-04-03T03:03:58.530Z,5.30
2023-04-03T03:04:30.460Z,4.45
2023-04-03T03:05:02.332Z,5.25
2023-04-03T03:05:35.278Z,5.47
2023-04-03T03:06:09.098Z,4.80
2023-04-03T03:06:42.382Z,4.75
2023-04-03T03:07:16.243Z,5.32
2023-04-03T03:07:48.183Z,4.90
2023-04-03T03:08:21.127Z,4.47
2023-04-03T03:08:54.290Z,4.32
2023-04-03T03:09:26.602Z,4.65
2023-04-03T03:09:58.407Z,4.63
2023-04-03T03:10:31.258Z,4.53
2023-04-03T03:11:04.335Z,5.50
2023-04-03T03:11:36.122Z,4.75
2023-04-03T03:12:08.952Z,4.32
2023-04-03T03:12:41.391Z,4.40
2023-04-03T03:13:13.203Z,4.78
2023-04-03T03:13:46.110Z,4.90
2023-04-03T03:14:17.911Z,4.95
2023-04-03T03:14:49.751Z,4.75
2023-04-03T03:15:22.534Z,4.40
2023-04-03T03:15:54.457Z,4.53
2023-04-03T03:16:26.349Z,4.82
2023-04-03T03:16:59.167Z,4.68
2023-04-03T03:17:31.168Z,5.15
2023-04-03T03:18:04.560Z,5.00
2023-04-03T03:18:37.860Z,4.55
2023-04-03T03:19:09.750Z,3.92
2023-04-03T03:19:42.551Z,4.60
2023-04-03T03:20:15.309Z,3.75
2023-04-03T03:20:47.180Z,4.82
2023-04-03T03:21:19.951Z,4.85
2023-04-03T03:21:52.007Z,4.60
2023-04-03T03:22:23.849Z,4.78
2023-04-03T03:22:56.623Z,4.57
2023-04-03T03:23:29.614Z,4.78
2023-04-03T03:24:01.451Z,4.20
2023-04-03T03:24:34.227Z,5.03
2023-04-03T03:25:06.918Z,4.43
2023-04-03T03:25:39.548Z,4.40
2023-04-03T03:26:13.407Z,4.45
2023-04-03T03:26:45.465Z,4.97
2023-04-03T03:27:17.306Z,3.90
2023-04-03T03:27:50.347Z,4.95
2023-04-03T03:28:22.169Z,4.68
2023-04-03T03:28:53.977Z,4.88
2023-04-03T03:29:26.775Z,4.55
2023-04-03T03:29:58.567Z,4.60
2023-04-03T03:30:30.362Z,5.70
2023-04-03T03:31:04.307Z,4.03
2023-04-03T03:31:36.342Z,5.38
2023-04-03T03:32:08.252Z,4.78
2023-04-03T03:32:41.220Z,4.22
2023-04-03T03:33:14.438Z,3.90
2023-04-03T03:33:46.332Z,4.70
2023-04-03T03:34:19.553Z,4.40
2023-04-03T03:34:51.398Z,3.92
2023-04-03T03:35:24.006Z,4.28
2023-04-03T03:35:56.895Z,4.60
2023-04-03T03:36:29.672Z,4.57
2023-04-03T03:37:01.517Z,4.45
2023-04-03T03:37:33.400Z,4.50
2023-04-03T03:38:06.197Z,4.35
2023-04-03T03:38:38.127Z,4.38
2023-04-03T03:39:10.680Z,5.05
2023-04-03T03:39:43.579Z,4.25
2023-04-03T03:40:15.735Z,4.28
2023-04-03T03:40:51.105Z,4.38
2023-04-03T03:41:23.903Z,4.70
2023-04-03T03:41:55.773Z,6.15
2023-04-03T03:42:27.673Z,4.85
2023-04-03T03:43:00.456Z,4.40
2023-04-03T03:43:32.269Z,4.63
2023-04-03T03:44:04.326Z,4.65
2023-04-03T03:44:37.244Z,4.53
2023-04-03T03:45:10.267Z,4.15
2023-04-03T03:45:42.105Z,4.53
2023-04-03T03:46:14.959Z,3.65
2023-04-03T03:46:47.235Z,4.45
2023-04-03T03:47:19.038Z,4.20
2023-04-03T03:47:51.863Z,5.15
2023-04-03T03:48:25.243Z,3.92
2023-04-03T03:48:57.119Z,3.75
2023-04-03T03:49:29.961Z,4.10
2023-04-03T03:50:01.948Z,4.68
2023-04-03T03:50:33.846Z,4.35
2023-04-03T03:51:07.261Z,4.00
2023-04-03T03:51:39.388Z,4.50
2023-04-03T03:52:11.533Z,4.65
2023-04-03T03:52:44.310Z,4.53
2023-04-03T03:53:16.446Z,3.53
2023-04-03T03:53:48.299Z,3.75
2023-04-03T03:54:21.131Z,3.88
2023-04-03T03:54:53.033Z,5.03
2023-04-03T03:55:24.965Z,4.43
2023-04-03T03:55:57.863Z,3.53
2023-04-03T03:56:29.711Z,3.80
2023-04-03T03:57:01.533Z,3.50
2023-04-03T03:57:34.744Z,3.78
2023-04-03T03:58:06.581Z,3.45
2023-04-03T03:58:38.511Z,4.20
2023-04-03T03:59:13.834Z,3.95
2023-04-03T03:59:45.921Z,4.30
2023-04-03T04:00:18.187Z,4.03
2023-04-03T04:00:50.489Z,4.10
2023-04-03T04:01:23.242Z,4.15
2023-04-03T04:01:55.734Z,4.30
2023-04-03T04:02:27.703Z,3.35
2023-04-03T04:03:01.452Z,4.38
2023-04-03T04:03:35.226Z,3.85
2023-04-03T04:04:08.107Z,4.30
2023-04-03T04:04:39.936Z,3.75
2023-04-03T04:05:11.790Z,4.60
2023-04-03T04:05:45.567Z,4.22
2023-04-03T04:06:17.691Z,4.18
2023-04-03T04:06:50.489Z,3.92
2023-04-03T04:07:22.697Z,3.92
2023-04-03T04:07:54.518Z,4.32
2023-04-03T04:08:27.287Z,4.47
2023-04-03T04:08:59.084Z,4.13
2023-04-03T04:09:30.895Z,4.13
2023-04-03T04:10:03.978Z,4.15
2023-04-03T04:10:36.619Z,3.75
2023-04-03T04:11:09.077Z,4.40
2023-04-03T04:11:42.053Z,3.72
2023-04-03T04:12:13.927Z,3.38
2023-04-03T04:12:45.913Z,3.95
2023-04-03T04:13:18.816Z,3.92
2023-04-03T04:13:50.622Z,3.70
2023-04-03T04:14:23.439Z,4.25
2023-04-03T04:14:55.263Z,3.88
2023-04-03T04:15:27.872Z,3.90
2023-04-03T04:16:00.850Z,3.95
2023-04-03T04:16:32.736Z,4.35
2023-04-03T04:17:04.656Z,4.07
2023-04-03T04:17:37.478Z,4.20
2023-04-03T04:18:09.317Z,3.75
2023-04-03T04:18:42.466Z,4.40
2023-04-03T04:19:18.157Z,4.18
2023-04-03T04:19:50.090Z,4.47
2023-04-03T04:20:22.375Z,3.78
2023-04-03T04:20:55.153Z,3.97
2023-04-03T04:21:27.512Z,3.40
2023-04-03T04:21:59.394Z,4.50
2023-04-03T04:22:32.216Z,4.07
2023-04-03T04:23:04.032Z,4.07
2023-04-03T04:23:36.056Z,3.60
2023-04-03T04:24:09.888Z,3.97
2023-04-03T04:24:41.674Z,3.92
2023-04-03T04:25:13.685Z,4.00
2023-04-03T04:25:47.304Z,4.20
2023-04-03T04:26:19.138Z,4.05
2023-04-03T04:26:50.930Z,4.40
2023-04-03T04:27:23.696Z,4.90
2023-04-03T04:27:55.608Z,4.28
2023-04-03T04:28:27.402Z,3.90
2023-04-03T04:29:00.216Z,3.80
2023-04-03T04:29:36.540Z,4.75
2023-04-03T04:30:10.743Z,4.22
2023-04-03T04:30:43.712Z,3.60
2023-04-03T04:31:15.635Z,4.00
2023-04-03T04:31:48.385Z,3.97
2023-04-03T04:32:20.251Z,4.22
2023-04-03T04:32:52.105Z,4.40
2023-04-03T04:33:24.955Z,4.40
2023-04-03T04:33:58.116Z,3.92
2023-04-03T04:34:30.536Z,4.03
2023-04-03T04:35:03.478Z,4.68
2023-04-03T04:35:36.070Z,3.80
2023-04-03T04:36:08.357Z,4.22
2023-04-03T04:36:41.539Z,4.57
2023-04-03T04:37:13.472Z,3.65
2023-04-03T04:37:45.617Z,4.25
2023-04-03T04:38:18.463Z,3.58
2023-04-03T04:38:53.582Z,3.88
2023-04-03T04:39:25.591Z,3.90
2023-04-03T04:39:58.366Z,4.15
2023-04-03T04:40:30.226Z,4.20
2023-04-03T04:41:03.005Z,3.80
2023-04-03T04:41:35.423Z,3.92
2023-04-03T04:42:08.022Z,4.07
2023-04-03T04:42:41.049Z,3.80
2023-04-03T04:43:15.257Z,3.97
2023-04-03T04:43:47.064Z,3.83
2023-04-03T04:44:18.890Z,4.15
2023-04-03T04:44:51.661Z,3.70
2023-04-03T04:45:23.493Z,3.83
2023-04-03T04:46:02.750Z,3.95
2023-04-03T04:46:35.870Z,3.88
2023-04-03T04:47:07.830Z,3.85
2023-04-03T04:47:39.758Z,4.00
2023-04-03T04:48:12.776Z,4.60
2023-04-03T04:48:45.199Z,3.50
2023-04-03T04:49:18.477Z,3.80
2023-04-03T04:49:51.622Z,3.80
2023-04-03T04:50:23.562Z,3.78
2023-04-03T04:50:55.594Z,4.00
2023-04-03T04:51:30.947Z,4.13
2023-04-03T04:52:07.307Z,3.70
2023-04-03T04:52:40.546Z,4.55
2023-04-03T04:53:12.365Z,3.97
2023-04-03T04:53:44.571Z,3.97
2023-04-03T04:54:16.488Z,4.00
2023-04-03T04:54:49.292Z,4.00
2023-04-03T04:55:21.498Z,3.95
2023-04-03T04:55:53.696Z,4.68
2023-04-03T04:56:27.142Z,3.97
2023-04-03T04:56:59.031Z,3.88
2023-04-03T04:57:30.956Z,4.50
2023-04-03T04:58:03.736Z,4.25
2023-04-03T04:58:36.067Z,4.40
2023-04-03T04:59:07.845Z,4.72
2023-04-03T04:59:40.834Z,3.88
2023-04-03T05:00:14.040Z,3.97
2023-04-03T05:00:45.967Z,3.90
2023-04-03T05:01:19.477Z,3.80
2023-04-03T05:01:51.462Z,3.67
2023-04-03T05:02:24.324Z,4.18
2023-04-03T05:02:56.426Z,4.57
2023-04-03T05:03:28.250Z,3.67
2023-04-03T05:04:01.024Z,3.95
2023-04-03T05:04:34.318Z,4.20
2023-04-03T05:05:07.854Z,3.75
2023-04-03T05:05:39.949Z,3.92
2023-04-03T05:06:12.913Z,4.40
2023-04-03T05:06:44.716Z,3.80
2023-04-03T05:07:17.529Z,3.83
2023-04-03T05:07:49.338Z,4.30
2023-04-03T05:08:21.957Z,4.10
2023-04-03T05:08:54.747Z,4.53
2023-04-03T05:09:26.627Z,4.20
2023-04-03T05:09:59.383Z,4.25
2023-04-03T05:10:32.128Z,4.32
2023-04-03T05:11:04.067Z,4.45
2023-04-03T05:11:37.038Z,3.90
2023-04-03T05:12:08.891Z,3.80
2023-04-03T05:12:41.162Z,4.07
2023-04-03T05:13:14.180Z,4.47
2023-04-03T05:13:46.011Z,4.03
2023-04-03T05:14:18.094Z,4.05
2023-04-03T05:14:50.903Z,4.25
2023-04-03T05:15:22.842Z,4.63
2023-04-03T05:15:55.832Z,4.60
2023-04-03T05:16:27.724Z,5.20
2023-04-03T05:16:59.545Z,4.10
2023-04-03T05:17:32.378Z,4.35
2023-04-03T05:18:04.774Z,3.90
2023-04-03T05:18:36.953Z,5.18
2023-04-03T05:19:10.327Z,4.07
2023-04-03T05:19:43.492Z,4.38
2023-04-03T05:20:16.307Z,4.00
2023-04-03T05:20:49.914Z,4.22
2023-04-03T05:21:24.086Z,3.70
2023-04-03T05:21:56.900Z,3.90
2023-04-03T05:22:28.817Z,4.15
2023-04-03T05:23:01.607Z,3.90
2023-04-03T05:23:33.451Z,4.75
2023-04-03T05:24:06.065Z,3.90
2023-04-03T05:24:38.927Z,4.38
2023-04-03T05:25:10.752Z,4.43
2023-04-03T05:25:44.780Z,4.22
2023-04-03T05:26:17.559Z,3.90
2023-04-03T05:26:49.378Z,4.82
2023-04-03T05:27:22.180Z,4.63
2023-04-03T05:27:54.051Z,4.30
2023-04-03T05:28:26.959Z,4.07
2023-04-03T05:28:58.830Z,5.00
2023-04-03T05:29:30.736Z,4.30
2023-04-03T05:30:04.050Z,5.40
2023-04-03T05:30:36.275Z,4.60
2023-04-03T05:31:08.080Z,3.85
2023-04-03T05:31:40.941Z,3.65
2023-04-03T05:32:13.181Z,3.75
2023-04-03T05:32:45.070Z,4.50
2023-04-03T05:33:17.912Z,4.53
2023-04-03T05:33:49.913Z,4.20
2023-04-03T05:34:21.959Z,3.50
2023-04-03T05:34:56.348Z,4.32
2023-04-03T05:35:28.206Z,4.18
2023-04-03T05:36:04.531Z,4.43
2023-04-03T05:36:37.507Z,4.05
2023-04-03T05:37:09.514Z,4.10
2023-04-03T05:37:41.871Z,5.00
2023-04-03T05:38:14.817Z,4.30
2023-04-03T05:38:46.821Z,3.92
2023-04-03T05:39:18.862Z,4.40
2023-04-03T05:39:51.790Z,4.05
2023-04-03T05:40:23.580Z,4.05
2023-04-03T05:40:55.482Z,3.67
2023-04-03T05:41:28.476Z,5.00
2023-04-03T05:42:00.393Z,3.80
2023-04-03T05:42:32.299Z,4.25
2023-04-03T05:43:05.239Z,4.18
2023-04-03T05:43:39.707Z,3.63
2023-04-03T05:44:11.500Z,4.05
2023-04-03T05:44:45.138Z,4.03
2023-04-03T05:45:17.117Z,4.30
2023-04-03T05:45:49.081Z,4.13
2023-04-03T05:46:23.082Z,3.90
2023-04-03T05:46:55.112Z,4.32
2023-04-03T05:47:27.120Z,3.90
2023-04-03T05:47:59.984Z,4.03
2023-04-03T05:48:31.847Z,4.25
2023-04-03T05:49:03.853Z,3.42
2023-04-03T05:49:37.010Z,4.18
2023-04-03T05:50:11.220Z,4.40
2023-04-03T05:50:43.376Z,4.22
2023-04-03T05:51:18.028Z,4.30
2023-04-03T05:51:49.851Z,4.10
2023-04-03T05:52:24.559Z,4.20
2023-04-03T05:52:59.904Z,4.30
2023-04-03T05:53:34.304Z,4.35
2023-04-03T05:54:14.463Z,4.25
2023-04-03T05:54:49.031Z,4.28
2023-04-03T05:55:22.264Z,4.10
2023-04-03T05:55:54.749Z,4.30
2023-04-03T05:56:26.780Z,5.32
2023-04-03T05:56:59.598Z,4.50
2023-04-03T05:57:31.604Z,4.18
2023-04-03T05:58:03.511Z,4.18
2023-04-03T05:58:36.319Z,4.55
2023-04-03T05:59:08.419Z,4.00
2023-04-03T05:59:41.205Z,4.05
2023-04-03T06:00:16.364Z,3.50
2023-04-03T06:00:49.339Z,4.65
2023-04-03T06:01:21.536Z,4.25
2023-04-03T06:01:53.430Z,4.35
2023-04-03T06:02:27.154Z,4.63
2023-04-03T06:02:59.167Z,4.80
2023-04-03T06:03:31.424Z,3.95
2023-04-03T06:04:04.894Z,4.63
2023-04-03T06:04:36.889Z,4.90
2023-04-03T06:05:12.488Z,5.30
2023-04-03T06:05:45.561Z,4.03
2023-04-03T06:06:17.355Z,4.03
2023-04-03T06:06:52.320Z,4.57
2023-04-03T06:07:28.887Z,4.13
2023-04-03T06:08:01.228Z,4.07
2023-04-03T06:08:34.895Z,4.35
2023-04-03T06:09:07.497Z,4.85
2023-04-03T06:09:40.278Z,4.45
2023-04-03T06:10:13.470Z,4.38
2023-04-03T06:10:46.514Z,4.10
2023-04-03T06:11:18.406Z,4.53
2023-04-03T06:11:50.351Z,4.70
2023-04-03T06:12:23.468Z,4.50
2023-04-03T06:12:55.492Z,4.45
2023-04-03T06:13:28.376Z,4.43
2023-04-03T06:14:00.184Z,4.43
2023-04-03T06:14:32.909Z,4.63
2023-04-03T06:15:05.842Z,4.50
2023-04-03T06:15:38.976Z,3.83
2023-04-03T06:16:16.266Z,4.68
2023-04-03T06:16:48.214Z,4.55
2023-04-03T06:17:21.166Z,4.05
2023-04-03T06:17:53.106Z,4.18
2023-04-03T06:18:25.974Z,5.18
2023-04-03T06:18:58.036Z,4.53
2023-04-03T06:19:29.846Z,5.50
2023-04-03T06:20:03.106Z,5.18
2023-04-03T06:20:36.759Z,4.75
2023-04-03T06:21:09.797Z,5.00
2023-04-03T06:21:41.638Z,4.30
2023-04-03T06:22:13.745Z,3.72
2023-04-03T06:22:46.803Z,4.20
2023-04-03T06:23:18.719Z,4.53
2023-04-03T06:23:50.540Z,3.92
2023-04-03T06:24:24.991Z,4.07
2023-04-03T06:24:56.853Z,4.20
2023-04-03T06:25:28.646Z,5.07
2023-04-03T06:26:01.653Z,4.90
2023-04-03T06:26:34.109Z,4.55
2023-04-03T06:27:06.121Z,4.25
2023-04-03T06:27:39.774Z,4.35
2023-04-03T06:28:11.787Z,4.35
2023-04-03T06:28:43.649Z,5.45
2023-04-03T06:29:16.574Z,3.97
2023-04-03T06:29:49.645Z,4.55
2023-04-03T06:30:21.639Z,5.28
2023-04-03T06:30:54.677Z,4.25
2023-04-03T06:31:26.981Z,3.53
2023-04-03T06:31:58.937Z,4.10
2023-04-03T06:32:32.082Z,4.68
2023-04-03T06:33:04.296Z,5.10
2023-04-03T06:33:37.312Z,4.00
2023-04-03T06:34:09.809Z,4.75
2023-04-03T06:34:42.538Z,4.30
2023-04-03T06:35:15.753Z,4.90
2023-04-03T06:35:49.021Z,4.30
2023-04-03T06:36:22.744Z,4.03
2023-04-03T06:36:54.576Z,4.80
2023-04-03T06:37:29.705Z,4.22
2023-04-03T06:38:01.974Z,4.70
2023-04-03T06:38:34.603Z,5.03
2023-04-03T06:39:07.857Z,4.30
2023-04-03T06:39:39.679Z,4.53
2023-04-03T06:40:20.670Z,5.20
2023-04-03T06:40:52.737Z,4.63
2023-04-03T06:41:24.598Z,3.97
2023-04-03T06:41:57.483Z,5.38
2023-04-03T06:42:29.518Z,4.88
2023-04-03T06:43:02.261Z,4.28
2023-04-03T06:43:34.848Z,4.70
2023-04-03T06:44:07.152Z,4.40
2023-04-03T06:44:39.958Z,4.68
2023-04-03T06:45:12.632Z,4.60
2023-04-03T06:45:44.636Z,5.20
2023-04-03T06:46:18.413Z,5.47
2023-04-03T06:46:50.397Z,4.65
2023-04-03T06:47:22.266Z,4.32
2023-04-03T06:47:55.311Z,4.30
2023-04-03T06:48:27.162Z,4.65
2023-04-03T06:48:59.039Z,4.50
2023-04-03T06:49:32.719Z,4.70
2023-04-03T06:50:05.433Z,4.78
2023-04-03T06:50:38.256Z,5.20
2023-04-03T06:51:18.688Z,4.95
2023-04-03T06:51:52.531Z,4.30
2023-04-03T06:52:24.381Z,4.35
2023-04-03T06:52:57.176Z,4.28
2023-04-03T06:53:28.992Z,4.28
2023-04-03T06:54:01.202Z,4.93
2023-04-03T06:54:34.502Z,3.83
2023-04-03T06:55:06.780Z,4.65
2023-04-03T06:55:40.042Z,4.18
2023-04-03T06:56:12.130Z,4.22
2023-04-03T06:56:43.979Z,4.68
2023-04-03T06:57:16.961Z,4.50
2023-04-03T06:57:48.863Z,4.47
2023-04-03T06:58:23.283Z,4.10
2023-04-03T06:58:58.347Z,3.65
2023-04-03T06:59:31.128Z,4.68
2023-04-03T07:00:04.831Z,3.95
2023-04-03T07:00:37.640Z,4.40
2023-04-03T07:01:10.798Z,4.80
2023-04-03T07:01:43.993Z,4.38
2023-04-03T07:02:15.846Z,4.75
2023-04-03T07:02:47.666Z,4.28
2023-04-03T07:03:20.405Z,4.65
2023-04-03T07:03:52.670Z,4.40
2023-04-03T07:04:25.577Z,4.70
2023-04-03T07:04:57.653Z,4.30
2023-04-03T07:05:30.501Z,4.53
2023-04-03T07:06:02.448Z,4.10
2023-04-03T07:06:37.079Z,4.50
2023-04-03T07:07:09.043Z,4.90
2023-04-03T07:07:42.130Z,4.78
2023-04-03T07:08:13.981Z,4.55
2023-04-03T07:08:49.123Z,4.43
2023-04-03T07:09:21.742Z,4.80
2023-04-03T07:09:55.116Z,4.97
2023-04-03T07:10:26.902Z,4.75
2023-04-03T07:10:58.806Z,4.68
2023-04-03T07:11:31.655Z,4.60
2023-04-03T07:12:03.961Z,4.30
2023-04-03T07:12:36.958Z,4.35
2023-04-03T07:13:08.778Z,4.32
2023-04-03T07:13:41.393Z,4.15
2023-04-03T07:14:14.209Z,4.28
2023-04-03T07:14:46.022Z,4.25
2023-04-03T07:15:19.153Z,4.40
2023-04-03T07:15:51.189Z,4.60
2023-04-03T07:16:23.161Z,5.13
2023-04-03T07:16:56.008Z,4.65
2023-04-03T07:17:27.979Z,4.25
2023-04-03T07:18:00.893Z,4.25
2023-04-03T07:18:32.985Z,5.00